sensor_id;sensor_type;location;lat;lon;timestamp;P1;durP1;ratioP1;P2;durP2;ratioP2
6999;SDS011;3540;53.242;10.408;2023-05-29T00:00:06;6.80;;;2.83;;
6999;SDS011;3540;53.242;10.408;2023-05-29T00:02:32;8.70;;;2.97;;
6999;SDS011;3540;53.242;10.408;2023-05-29T00:05:01;7.97;;;2.37;;
6999;SDS011;3540;53.242;10.408;2023-05-29T00:07:28;6.57;;;2.73;;
6999;SDS011;3540;53.242;10.408;2023-05-29T00:09:55;6.17;;;3.00;;
6999;SDS011;3540;53.242;10.408;2023-05-29T00:12:21;8.93;;;3.10;;
6999;SDS011;3540;53.242;10.408;2023-05-29T00:14:48;8.63;;;3.10;;
6999;SDS011;3540;53.242;10.408;2023-05-29T00:17:13;5.67;;;2.93;;
6999;SDS011;3540;53.242;10.408;2023-05-29T00:19:40;8.30;;;3.17;;
6999;SDS011;3540;53.242;10.408;2023-05-29T00:22:06;10.13;;;3.10;;
6999;SDS011;3540;53.242;10.408;2023-05-29T00:24:32;7.80;;;2.90;;
6999;SDS011;3540;53.242;10.408;2023-05-29T00:26:58;10.63;;;3.00;;
6999;SDS011;3540;53.242;10.408;2023-05-29T00:29:23;6.97;;;3.23;;
6999;SDS011;3540;53.242;10.408;2023-05-29T00:31:49;7.77;;;2.93;;
6999;SDS011;3540;53.242;10.408;2023-05-29T00:34:14;9.50;;;3.20;;
6999;SDS011;3540;53.242;10.408;2023-05-29T00:36:40;5.90;;;2.70;;
6999;SDS011;3540;53.242;10.408;2023-05-29T00:39:06;5.83;;;3.07;;
6999;SDS011;3540;53.242;10.408;2023-05-29T00:41:31;11.27;;;3.10;;
6999;SDS011;3540;53.242;10.408;2023-05-29T00:43:57;8.53;;;2.90;;
6999;SDS011;3540;53.242;10.408;2023-05-29T00:46:22;7.10;;;3.10;;
6999;SDS011;3540;53.242;10.408;2023-05-29T00:48:48;11.07;;;3.10;;
6999;SDS011;3540;53.242;10.408;2023-05-29T00:51:15;9.53;;;3.37;;
6999;SDS011;3540;53.242;10.408;2023-05-29T00:53:41;14.33;;;3.43;;
6999;SDS011;3540;53.242;10.408;2023-05-29T00:56:08;6.30;;;3.00;;
6999;SDS011;3540;53.242;10.408;2023-05-29T00:58:35;10.03;;;2.97;;
6999;SDS011;3540;53.242;10.408;2023-05-29T01:01:01;5.77;;;2.83;;
6999;SDS011;3540;53.242;10.408;2023-05-29T01:03:28;11.20;;;3.27;;
6999;SDS011;3540;53.242;10.408;2023-05-29T01:05:54;8.47;;;2.67;;
6999;SDS011;3540;53.242;10.408;2023-05-29T01:08:19;9.53;;;3.30;;
6999;SDS011;3540;53.242;10.408;2023-05-29T01:10:45;8.77;;;2.80;;
6999;SDS011;3540;53.242;10.408;2023-05-29T01:13:18;11.83;;;3.73;;
6999;SDS011;3540;53.242;10.408;2023-05-29T01:18:32;9.63;;;2.97;;
6999;SDS011;3540;53.242;10.408;2023-05-29T01:24:02;12.77;;;3.50;;
6999;SDS011;3540;53.242;10.408;2023-05-29T01:29:28;10.47;;;2.70;;
6999;SDS011;3540;53.242;10.408;2023-05-29T01:31:56;12.53;;;3.37;;
6999;SDS011;3540;53.242;10.408;2023-05-29T01:34:23;10.30;;;3.13;;
6999;SDS011;3540;53.242;10.408;2023-05-29T01:36:48;9.90;;;2.90;;
6999;SDS011;3540;53.242;10.408;2023-05-29T01:39:14;11.90;;;3.10;;
6999;SDS011;3540;53.242;10.408;2023-05-29T01:41:41;11.77;;;3.20;;
6999;SDS011;3540;53.242;10.408;2023-05-29T01:44:09;12.07;;;2.93;;
6999;SDS011;3540;53.242;10.408;2023-05-29T01:46:38;9.23;;;3.00;;
6999;SDS011;3540;53.242;10.408;2023-05-29T01:49:08;10.23;;;3.17;;
6999;SDS011;3540;53.242;10.408;2023-05-29T01:51:36;10.73;;;3.07;;
6999;SDS011;3540;53.242;10.408;2023-05-29T01:54:02;12.57;;;3.47;;
6999;SDS011;3540;53.242;10.408;2023-05-29T01:56:29;11.47;;;3.00;;
6999;SDS011;3540;53.242;10.408;2023-05-29T01:58:56;9.90;;;3.00;;
6999;SDS011;3540;53.242;10.408;2023-05-29T02:01:22;10.63;;;3.00;;
6999;SDS011;3540;53.242;10.408;2023-05-29T02:03:48;9.27;;;2.87;;
6999;SDS011;3540;53.242;10.408;2023-05-29T02:06:14;12.40;;;2.97;;
6999;SDS011;3540;53.242;10.408;2023-05-29T02:08:40;12.70;;;3.20;;
6999;SDS011;3540;53.242;10.408;2023-05-29T02:11:06;8.60;;;2.73;;
6999;SDS011;3540;53.242;10.408;2023-05-29T02:13:31;8.13;;;3.40;;
6999;SDS011;3540;53.242;10.408;2023-05-29T02:15:57;13.90;;;3.23;;
6999;SDS011;3540;53.242;10.408;2023-05-29T02:18:23;11.73;;;3.07;;
6999;SDS011;3540;53.242;10.408;2023-05-29T02:20:48;9.13;;;3.10;;
6999;SDS011;3540;53.242;10.408;2023-05-29T02:23:14;11.47;;;2.90;;
6999;SDS011;3540;53.242;10.408;2023-05-29T02:25:40;12.00;;;3.50;;
6999;SDS011;3540;53.242;10.408;2023-05-29T02:28:06;12.23;;;3.27;;
6999;SDS011;3540;53.242;10.408;2023-05-29T02:30:32;9.73;;;3.13;;
6999;SDS011;3540;53.242;10.408;2023-05-29T02:32:58;11.03;;;3.20;;
6999;SDS011;3540;53.242;10.408;2023-05-29T02:35:24;17.43;;;3.70;;
6999;SDS011;3540;53.242;10.408;2023-05-29T02:37:50;11.47;;;3.33;;
6999;SDS011;3540;53.242;10.408;2023-05-29T02:40:17;10.40;;;2.67;;
6999;SDS011;3540;53.242;10.408;2023-05-29T02:42:43;12.53;;;3.13;;
6999;SDS011;3540;53.242;10.408;2023-05-29T02:45:09;13.03;;;3.13;;
6999;SDS011;3540;53.242;10.408;2023-05-29T02:47:35;11.97;;;2.93;;
6999;SDS011;3540;53.242;10.408;2023-05-29T02:50:02;8.37;;;2.50;;
6999;SDS011;3540;53.242;10.408;2023-05-29T02:52:28;12.33;;;3.67;;
6999;SDS011;3540;53.242;10.408;2023-05-29T02:54:55;14.50;;;3.23;;
6999;SDS011;3540;53.242;10.408;2023-05-29T02:57:21;13.27;;;3.20;;
6999;SDS011;3540;53.242;10.408;2023-05-29T02:59:47;12.90;;;3.73;;
6999;SDS011;3540;53.242;10.408;2023-05-29T03:02:14;10.90;;;3.33;;
6999;SDS011;3540;53.242;10.408;2023-05-29T03:04:39;16.30;;;3.93;;
6999;SDS011;3540;53.242;10.408;2023-05-29T03:07:05;16.80;;;3.40;;
6999;SDS011;3540;53.242;10.408;2023-05-29T03:09:31;17.00;;;3.30;;
6999;SDS011;3540;53.242;10.408;2023-05-29T03:11:57;14.70;;;3.30;;
6999;SDS011;3540;53.242;10.408;2023-05-29T03:14:23;14.03;;;3.30;;
6999;SDS011;3540;53.242;10.408;2023-05-29T03:16:48;12.23;;;3.23;;
6999;SDS011;3540;53.242;10.408;2023-05-29T03:19:15;12.83;;;3.20;;
6999;SDS011;3540;53.242;10.408;2023-05-29T03:21:41;19.43;;;4.10;;
6999;SDS011;3540;53.242;10.408;2023-05-29T03:24:06;13.87;;;2.93;;
6999;SDS011;3540;53.242;10.408;2023-05-29T03:26:32;14.63;;;3.77;;
6999;SDS011;3540;53.242;10.408;2023-05-29T03:28:58;14.20;;;3.03;;
6999;SDS011;3540;53.242;10.408;2023-05-29T03:31:23;16.57;;;3.40;;
6999;SDS011;3540;53.242;10.408;2023-05-29T03:33:49;14.30;;;3.70;;
6999;SDS011;3540;53.242;10.408;2023-05-29T03:36:15;15.73;;;3.37;;
6999;SDS011;3540;53.242;10.408;2023-05-29T03:38:43;12.40;;;3.23;;
6999;SDS011;3540;53.242;10.408;2023-05-29T03:41:09;18.63;;;3.27;;
6999;SDS011;3540;53.242;10.408;2023-05-29T03:43:35;18.23;;;3.40;;
6999;SDS011;3540;53.242;10.408;2023-05-29T03:46:01;18.63;;;3.57;;
6999;SDS011;3540;53.242;10.408;2023-05-29T03:48:27;16.27;;;3.60;;
6999;SDS011;3540;53.242;10.408;2023-05-29T03:50:52;14.27;;;3.50;;
6999;SDS011;3540;53.242;10.408;2023-05-29T03:53:18;13.97;;;3.27;;
6999;SDS011;3540;53.242;10.408;2023-05-29T03:55:44;17.07;;;3.20;;
6999;SDS011;3540;53.242;10.408;2023-05-29T03:58:09;14.20;;;3.27;;
6999;SDS011;3540;53.242;10.408;2023-05-29T04:00:37;14.47;;;3.70;;
6999;SDS011;3540;53.242;10.408;2023-05-29T04:03:03;20.37;;;3.90;;
6999;SDS011;3540;53.242;10.408;2023-05-29T04:05:29;14.70;;;3.80;;
6999;SDS011;3540;53.242;10.408;2023-05-29T04:07:55;13.60;;;3.40;;
6999;SDS011;3540;53.242;10.408;2023-05-29T04:10:21;13.33;;;3.27;;
6999;SDS011;3540;53.242;10.408;2023-05-29T04:12:47;18.67;;;3.80;;
6999;SDS011;3540;53.242;10.408;2023-05-29T04:15:12;17.63;;;3.80;;
6999;SDS011;3540;53.242;10.408;2023-05-29T04:17:38;20.67;;;4.57;;
6999;SDS011;3540;53.242;10.408;2023-05-29T04:20:04;15.80;;;3.43;;
6999;SDS011;3540;53.242;10.408;2023-05-29T04:22:34;17.30;;;3.47;;
6999;SDS011;3540;53.242;10.408;2023-05-29T04:25:01;16.37;;;3.50;;
6999;SDS011;3540;53.242;10.408;2023-05-29T04:27:28;21.10;;;3.90;;
6999;SDS011;3540;53.242;10.408;2023-05-29T04:29:55;19.37;;;4.20;;
6999;SDS011;3540;53.242;10.408;2023-05-29T04:32:21;16.27;;;3.23;;
6999;SDS011;3540;53.242;10.408;2023-05-29T04:34:46;19.03;;;4.23;;
6999;SDS011;3540;53.242;10.408;2023-05-29T04:37:12;14.87;;;3.77;;
6999;SDS011;3540;53.242;10.408;2023-05-29T04:39:41;15.53;;;3.47;;
6999;SDS011;3540;53.242;10.408;2023-05-29T04:42:06;18.67;;;3.87;;
6999;SDS011;3540;53.242;10.408;2023-05-29T04:44:32;14.63;;;3.93;;
6999;SDS011;3540;53.242;10.408;2023-05-29T04:46:58;19.53;;;3.90;;
6999;SDS011;3540;53.242;10.408;2023-05-29T04:49:23;22.10;;;3.93;;
6999;SDS011;3540;53.242;10.408;2023-05-29T04:51:49;15.20;;;3.97;;
6999;SDS011;3540;53.242;10.408;2023-05-29T04:54:17;15.17;;;3.70;;
6999;SDS011;3540;53.242;10.408;2023-05-29T04:56:44;12.57;;;3.43;;
6999;SDS011;3540;53.242;10.408;2023-05-29T04:59:11;25.77;;;4.73;;
6999;SDS011;3540;53.242;10.408;2023-05-29T05:01:37;16.27;;;4.00;;
6999;SDS011;3540;53.242;10.408;2023-05-29T05:04:03;20.10;;;4.40;;
6999;SDS011;3540;53.242;10.408;2023-05-29T05:06:29;19.87;;;4.37;;
6999;SDS011;3540;53.242;10.408;2023-05-29T05:08:55;20.77;;;3.97;;
6999;SDS011;3540;53.242;10.408;2023-05-29T05:11:21;16.37;;;4.03;;
6999;SDS011;3540;53.242;10.408;2023-05-29T05:13:47;17.87;;;3.73;;
6999;SDS011;3540;53.242;10.408;2023-05-29T05:16:13;20.17;;;3.90;;
6999;SDS011;3540;53.242;10.408;2023-05-29T05:18:39;24.83;;;4.70;;
6999;SDS011;3540;53.242;10.408;2023-05-29T05:21:05;16.40;;;4.10;;
6999;SDS011;3540;53.242;10.408;2023-05-29T05:23:31;15.70;;;3.57;;
6999;SDS011;3540;53.242;10.408;2023-05-29T05:25:57;17.70;;;4.00;;
6999;SDS011;3540;53.242;10.408;2023-05-29T05:28:22;20.33;;;4.00;;
6999;SDS011;3540;53.242;10.408;2023-05-29T05:30:48;23.80;;;4.43;;
6999;SDS011;3540;53.242;10.408;2023-05-29T05:33:14;18.20;;;3.70;;
6999;SDS011;3540;53.242;10.408;2023-05-29T05:35:40;22.60;;;4.63;;
6999;SDS011;3540;53.242;10.408;2023-05-29T05:38:05;17.20;;;3.60;;
6999;SDS011;3540;53.242;10.408;2023-05-29T05:40:31;17.70;;;3.87;;
6999;SDS011;3540;53.242;10.408;2023-05-29T05:42:57;14.93;;;3.53;;
6999;SDS011;3540;53.242;10.408;2023-05-29T05:45:23;20.37;;;3.90;;
6999;SDS011;3540;53.242;10.408;2023-05-29T05:47:48;18.43;;;3.97;;
6999;SDS011;3540;53.242;10.408;2023-05-29T05:50:14;25.10;;;4.47;;
6999;SDS011;3540;53.242;10.408;2023-05-29T05:52:40;19.80;;;4.50;;
6999;SDS011;3540;53.242;10.408;2023-05-29T05:55:06;19.33;;;3.80;;
6999;SDS011;3540;53.242;10.408;2023-05-29T05:57:32;20.20;;;4.50;;
6999;SDS011;3540;53.242;10.408;2023-05-29T05:59:59;22.20;;;4.93;;
6999;SDS011;3540;53.242;10.408;2023-05-29T06:02:25;19.60;;;4.23;;
6999;SDS011;3540;53.242;10.408;2023-05-29T06:04:51;21.63;;;4.57;;
6999;SDS011;3540;53.242;10.408;2023-05-29T06:07:17;17.60;;;4.10;;
6999;SDS011;3540;53.242;10.408;2023-05-29T06:09:42;13.37;;;3.70;;
6999;SDS011;3540;53.242;10.408;2023-05-29T06:12:08;23.03;;;4.53;;
6999;SDS011;3540;53.242;10.408;2023-05-29T06:14:34;19.47;;;3.87;;
6999;SDS011;3540;53.242;10.408;2023-05-29T06:17:00;20.67;;;4.53;;
6999;SDS011;3540;53.242;10.408;2023-05-29T06:19:26;17.57;;;4.30;;
6999;SDS011;3540;53.242;10.408;2023-05-29T06:21:52;20.77;;;3.80;;
6999;SDS011;3540;53.242;10.408;2023-05-29T06:24:18;16.87;;;4.17;;
6999;SDS011;3540;53.242;10.408;2023-05-29T06:26:43;20.63;;;4.87;;
6999;SDS011;3540;53.242;10.408;2023-05-29T06:29:09;24.80;;;4.60;;
6999;SDS011;3540;53.242;10.408;2023-05-29T06:31:35;15.17;;;3.90;;
6999;SDS011;3540;53.242;10.408;2023-05-29T06:34:01;16.67;;;4.10;;
6999;SDS011;3540;53.242;10.408;2023-05-29T06:36:26;19.17;;;4.00;;
6999;SDS011;3540;53.242;10.408;2023-05-29T06:38:52;18.07;;;3.90;;
6999;SDS011;3540;53.242;10.408;2023-05-29T06:41:18;18.30;;;4.20;;
6999;SDS011;3540;53.242;10.408;2023-05-29T06:43:43;12.93;;;3.73;;
6999;SDS011;3540;53.242;10.408;2023-05-29T06:46:09;19.40;;;4.40;;
6999;SDS011;3540;53.242;10.408;2023-05-29T06:48:35;18.20;;;4.10;;
6999;SDS011;3540;53.242;10.408;2023-05-29T06:51:01;18.10;;;3.80;;
6999;SDS011;3540;53.242;10.408;2023-05-29T06:53:37;16.93;;;4.03;;
6999;SDS011;3540;53.242;10.408;2023-05-29T06:56:04;17.90;;;3.73;;
6999;SDS011;3540;53.242;10.408;2023-05-29T06:58:30;21.73;;;4.60;;
6999;SDS011;3540;53.242;10.408;2023-05-29T07:00:57;16.87;;;4.30;;
6999;SDS011;3540;53.242;10.408;2023-05-29T07:03:24;12.70;;;3.70;;
6999;SDS011;3540;53.242;10.408;2023-05-29T07:05:51;18.50;;;4.83;;
6999;SDS011;3540;53.242;10.408;2023-05-29T07:08:16;14.70;;;3.73;;
6999;SDS011;3540;53.242;10.408;2023-05-29T07:10:42;17.57;;;3.87;;
6999;SDS011;3540;53.242;10.408;2023-05-29T07:13:08;15.87;;;3.80;;
6999;SDS011;3540;53.242;10.408;2023-05-29T07:15:33;17.37;;;4.00;;
6999;SDS011;3540;53.242;10.408;2023-05-29T07:17:59;19.17;;;4.10;;
6999;SDS011;3540;53.242;10.408;2023-05-29T07:20:25;18.10;;;4.33;;
6999;SDS011;3540;53.242;10.408;2023-05-29T07:22:51;16.40;;;3.87;;
6999;SDS011;3540;53.242;10.408;2023-05-29T07:25:17;15.90;;;3.63;;
6999;SDS011;3540;53.242;10.408;2023-05-29T07:27:43;21.00;;;4.27;;
6999;SDS011;3540;53.242;10.408;2023-05-29T07:30:08;17.93;;;4.20;;
6999;SDS011;3540;53.242;10.408;2023-05-29T07:32:35;15.63;;;3.80;;
6999;SDS011;3540;53.242;10.408;2023-05-29T07:35:00;19.57;;;4.37;;
6999;SDS011;3540;53.242;10.408;2023-05-29T07:37:26;15.47;;;3.57;;
6999;SDS011;3540;53.242;10.408;2023-05-29T07:39:52;17.70;;;4.43;;
6999;SDS011;3540;53.242;10.408;2023-05-29T07:42:17;20.03;;;4.00;;
6999;SDS011;3540;53.242;10.408;2023-05-29T07:44:44;17.27;;;3.90;;
6999;SDS011;3540;53.242;10.408;2023-05-29T07:47:10;15.57;;;4.00;;
6999;SDS011;3540;53.242;10.408;2023-05-29T07:49:36;17.37;;;4.53;;
6999;SDS011;3540;53.242;10.408;2023-05-29T07:52:02;15.73;;;4.00;;
6999;SDS011;3540;53.242;10.408;2023-05-29T07:54:28;17.03;;;3.97;;
6999;SDS011;3540;53.242;10.408;2023-05-29T07:56:57;18.27;;;3.70;;
6999;SDS011;3540;53.242;10.408;2023-05-29T07:59:27;18.83;;;3.90;;
6999;SDS011;3540;53.242;10.408;2023-05-29T08:01:54;16.67;;;3.70;;
6999;SDS011;3540;53.242;10.408;2023-05-29T08:04:23;13.37;;;3.50;;
6999;SDS011;3540;53.242;10.408;2023-05-29T08:06:50;15.70;;;4.23;;
6999;SDS011;3540;53.242;10.408;2023-05-29T08:09:16;17.53;;;3.50;;
6999;SDS011;3540;53.242;10.408;2023-05-29T08:11:42;17.83;;;3.93;;
6999;SDS011;3540;53.242;10.408;2023-05-29T08:14:10;18.83;;;4.03;;
6999;SDS011;3540;53.242;10.408;2023-05-29T08:16:36;16.00;;;4.07;;
6999;SDS011;3540;53.242;10.408;2023-05-29T08:19:02;16.70;;;3.90;;
6999;SDS011;3540;53.242;10.408;2023-05-29T08:21:28;16.43;;;3.60;;
6999;SDS011;3540;53.242;10.408;2023-05-29T08:23:54;19.37;;;3.90;;
6999;SDS011;3540;53.242;10.408;2023-05-29T08:26:20;12.70;;;3.60;;
6999;SDS011;3540;53.242;10.408;2023-05-29T08:28:46;16.73;;;4.40;;
6999;SDS011;3540;53.242;10.408;2023-05-29T08:31:11;12.50;;;3.30;;
6999;SDS011;3540;53.242;10.408;2023-05-29T08:33:37;12.00;;;3.43;;
6999;SDS011;3540;53.242;10.408;2023-05-29T08:36:02;18.07;;;4.37;;
6999;SDS011;3540;53.242;10.408;2023-05-29T08:38:28;16.70;;;3.30;;
6999;SDS011;3540;53.242;10.408;2023-05-29T08:40:56;14.23;;;4.07;;
6999;SDS011;3540;53.242;10.408;2023-05-29T08:43:23;16.20;;;3.80;;
6999;SDS011;3540;53.242;10.408;2023-05-29T08:45:54;13.60;;;3.63;;
6999;SDS011;3540;53.242;10.408;2023-05-29T08:48:24;18.03;;;4.00;;
6999;SDS011;3540;53.242;10.408;2023-05-29T08:50:52;14.67;;;3.30;;
6999;SDS011;3540;53.242;10.408;2023-05-29T08:53:22;12.80;;;3.00;;
6999;SDS011;3540;53.242;10.408;2023-05-29T08:55:49;14.30;;;3.50;;
6999;SDS011;3540;53.242;10.408;2023-05-29T08:58:17;12.03;;;3.47;;
6999;SDS011;3540;53.242;10.408;2023-05-29T09:00:47;10.00;;;3.33;;
6999;SDS011;3540;53.242;10.408;2023-05-29T09:03:13;12.43;;;3.30;;
6999;SDS011;3540;53.242;10.408;2023-05-29T09:05:39;13.80;;;3.70;;
6999;SDS011;3540;53.242;10.408;2023-05-29T09:08:09;11.07;;;3.20;;
6999;SDS011;3540;53.242;10.408;2023-05-29T09:10:37;11.90;;;3.17;;
6999;SDS011;3540;53.242;10.408;2023-05-29T09:13:06;11.17;;;3.67;;
6999;SDS011;3540;53.242;10.408;2023-05-29T09:15:34;11.50;;;3.10;;
6999;SDS011;3540;53.242;10.408;2023-05-29T09:17:59;15.27;;;3.77;;
6999;SDS011;3540;53.242;10.408;2023-05-29T09:20:26;15.07;;;3.67;;
6999;SDS011;3540;53.242;10.408;2023-05-29T09:23:02;13.07;;;3.53;;
6999;SDS011;3540;53.242;10.408;2023-05-29T09:25:30;14.13;;;3.60;;
6999;SDS011;3540;53.242;10.408;2023-05-29T09:27:58;14.37;;;4.10;;
6999;SDS011;3540;53.242;10.408;2023-05-29T09:33:08;18.70;;;4.10;;
6999;SDS011;3540;53.242;10.408;2023-05-29T09:35:35;10.83;;;3.40;;
6999;SDS011;3540;53.242;10.408;2023-05-29T09:38:19;17.87;;;4.40;;
6999;SDS011;3540;53.242;10.408;2023-05-29T09:40:45;12.27;;;3.87;;
6999;SDS011;3540;53.242;10.408;2023-05-29T09:45:42;12.80;;;3.63;;
6999;SDS011;3540;53.242;10.408;2023-05-29T09:48:27;13.10;;;3.60;;
6999;SDS011;3540;53.242;10.408;2023-05-29T09:50:52;12.60;;;3.77;;
6999;SDS011;3540;53.242;10.408;2023-05-29T09:53:23;15.50;;;3.97;;
6999;SDS011;3540;53.242;10.408;2023-05-29T09:55:55;11.70;;;3.70;;
6999;SDS011;3540;53.242;10.408;2023-05-29T09:58:24;12.13;;;3.70;;
6999;SDS011;3540;53.242;10.408;2023-05-29T10:00:50;13.73;;;4.00;;
6999;SDS011;3540;53.242;10.408;2023-05-29T10:03:17;15.80;;;3.77;;
6999;SDS011;3540;53.242;10.408;2023-05-29T10:05:44;13.00;;;3.73;;
6999;SDS011;3540;53.242;10.408;2023-05-29T10:08:14;14.47;;;3.80;;
6999;SDS011;3540;53.242;10.408;2023-05-29T10:10:43;16.20;;;3.77;;
6999;SDS011;3540;53.242;10.408;2023-05-29T10:13:12;14.50;;;3.60;;
6999;SDS011;3540;53.242;10.408;2023-05-29T10:15:46;18.93;;;4.27;;
6999;SDS011;3540;53.242;10.408;2023-05-29T10:18:26;14.17;;;3.67;;
6999;SDS011;3540;53.242;10.408;2023-05-29T10:20:58;13.90;;;3.60;;
6999;SDS011;3540;53.242;10.408;2023-05-29T10:23:25;15.60;;;4.30;;
6999;SDS011;3540;53.242;10.408;2023-05-29T10:25:54;15.73;;;3.77;;
6999;SDS011;3540;53.242;10.408;2023-05-29T10:28:26;17.57;;;4.20;;
6999;SDS011;3540;53.242;10.408;2023-05-29T10:30:53;17.27;;;3.83;;
6999;SDS011;3540;53.242;10.408;2023-05-29T10:36:21;14.30;;;3.77;;
6999;SDS011;3540;53.242;10.408;2023-05-29T10:38:51;12.23;;;3.60;;
6999;SDS011;3540;53.242;10.408;2023-05-29T10:43:58;13.30;;;3.93;;
6999;SDS011;3540;53.242;10.408;2023-05-29T10:49:16;9.37;;;2.90;;
6999;SDS011;3540;53.242;10.408;2023-05-29T10:51:42;11.33;;;3.47;;
6999;SDS011;3540;53.242;10.408;2023-05-29T10:54:08;9.87;;;3.63;;
6999;SDS011;3540;53.242;10.408;2023-05-29T10:56:34;11.57;;;3.83;;
6999;SDS011;3540;53.242;10.408;2023-05-29T10:59:00;13.17;;;3.70;;
6999;SDS011;3540;53.242;10.408;2023-05-29T11:01:27;14.03;;;4.00;;
6999;SDS011;3540;53.242;10.408;2023-05-29T11:06:43;11.60;;;3.20;;
6999;SDS011;3540;53.242;10.408;2023-05-29T11:20:03;9.97;;;3.63;;
6999;SDS011;3540;53.242;10.408;2023-05-29T11:22:56;10.37;;;3.50;;
6999;SDS011;3540;53.242;10.408;2023-05-29T11:25:25;9.37;;;3.20;;
6999;SDS011;3540;53.242;10.408;2023-05-29T11:27:51;9.90;;;3.10;;
6999;SDS011;3540;53.242;10.408;2023-05-29T11:30:17;12.30;;;3.57;;
6999;SDS011;3540;53.242;10.408;2023-05-29T11:32:44;10.63;;;3.53;;
6999;SDS011;3540;53.242;10.408;2023-05-29T11:35:14;10.90;;;3.33;;
6999;SDS011;3540;53.242;10.408;2023-05-29T11:37:40;13.07;;;3.90;;
6999;SDS011;3540;53.242;10.408;2023-05-29T11:40:10;13.10;;;3.70;;
6999;SDS011;3540;53.242;10.408;2023-05-29T11:42:46;12.33;;;3.27;;
6999;SDS011;3540;53.242;10.408;2023-05-29T11:45:18;11.33;;;3.60;;
6999;SDS011;3540;53.242;10.408;2023-05-29T11:50:25;8.43;;;3.30;;
6999;SDS011;3540;53.242;10.408;2023-05-29T11:52:52;10.77;;;3.40;;
6999;SDS011;3540;53.242;10.408;2023-05-29T11:55:20;12.33;;;3.30;;
6999;SDS011;3540;53.242;10.408;2023-05-29T11:57:47;7.93;;;3.03;;
6999;SDS011;3540;53.242;10.408;2023-05-29T12:00:14;9.63;;;3.07;;
6999;SDS011;3540;53.242;10.408;2023-05-29T12:02:41;9.37;;;3.20;;
6999;SDS011;3540;53.242;10.408;2023-05-29T12:05:08;8.70;;;3.23;;
6999;SDS011;3540;53.242;10.408;2023-05-29T12:07:35;6.60;;;2.50;;
6999;SDS011;3540;53.242;10.408;2023-05-29T12:12:40;10.53;;;3.27;;
6999;SDS011;3540;53.242;10.408;2023-05-29T12:15:06;9.00;;;3.50;;
6999;SDS011;3540;53.242;10.408;2023-05-29T12:17:33;10.50;;;3.30;;
6999;SDS011;3540;53.242;10.408;2023-05-29T12:20:00;12.37;;;2.97;;
6999;SDS011;3540;53.242;10.408;2023-05-29T12:22:37;11.70;;;3.40;;
6999;SDS011;3540;53.242;10.408;2023-05-29T12:27:36;8.80;;;2.70;;
6999;SDS011;3540;53.242;10.408;2023-05-29T12:30:08;7.27;;;3.03;;
6999;SDS011;3540;53.242;10.408;2023-05-29T12:32:38;9.43;;;2.70;;
6999;SDS011;3540;53.242;10.408;2023-05-29T12:35:24;7.53;;;2.90;;
6999;SDS011;3540;53.242;10.408;2023-05-29T12:40:21;9.87;;;3.47;;
6999;SDS011;3540;53.242;10.408;2023-05-29T12:42:49;8.27;;;3.13;;
6999;SDS011;3540;53.242;10.408;2023-05-29T12:45:18;9.03;;;3.20;;
6999;SDS011;3540;53.242;10.408;2023-05-29T12:47:53;7.70;;;2.90;;
6999;SDS011;3540;53.242;10.408;2023-05-29T12:52:57;8.13;;;2.60;;
6999;SDS011;3540;53.242;10.408;2023-05-29T12:55:24;7.57;;;2.70;;
6999;SDS011;3540;53.242;10.408;2023-05-29T12:57:50;8.33;;;2.93;;
6999;SDS011;3540;53.242;10.408;2023-05-29T13:00:16;6.43;;;2.73;;
6999;SDS011;3540;53.242;10.408;2023-05-29T13:02:44;8.87;;;3.17;;
6999;SDS011;3540;53.242;10.408;2023-05-29T13:05:10;8.93;;;3.10;;
6999;SDS011;3540;53.242;10.408;2023-05-29T13:07:35;7.27;;;2.83;;
6999;SDS011;3540;53.242;10.408;2023-05-29T13:10:01;8.30;;;2.97;;
6999;SDS011;3540;53.242;10.408;2023-05-29T13:12:27;7.00;;;2.87;;
6999;SDS011;3540;53.242;10.408;2023-05-29T13:14:53;8.67;;;3.03;;
6999;SDS011;3540;53.242;10.408;2023-05-29T13:17:21;8.33;;;2.93;;
6999;SDS011;3540;53.242;10.408;2023-05-29T13:19:46;7.43;;;2.87;;
6999;SDS011;3540;53.242;10.408;2023-05-29T13:22:12;9.67;;;2.97;;
6999;SDS011;3540;53.242;10.408;2023-05-29T13:24:38;7.53;;;3.00;;
6999;SDS011;3540;53.242;10.408;2023-05-29T13:27:06;9.37;;;2.70;;
6999;SDS011;3540;53.242;10.408;2023-05-29T13:29:32;10.37;;;2.97;;
6999;SDS011;3540;53.242;10.408;2023-05-29T13:31:57;7.93;;;2.90;;
6999;SDS011;3540;53.242;10.408;2023-05-29T13:34:23;8.33;;;3.03;;
6999;SDS011;3540;53.242;10.408;2023-05-29T13:36:53;6.80;;;2.70;;
6999;SDS011;3540;53.242;10.408;2023-05-29T13:39:20;7.63;;;3.30;;
6999;SDS011;3540;53.242;10.408;2023-05-29T13:41:45;9.27;;;3.20;;
6999;SDS011;3540;53.242;10.408;2023-05-29T13:44:11;5.60;;;2.65;;
6999;SDS011;3540;53.242;10.408;2023-05-29T13:46:37;9.97;;;3.10;;
6999;SDS011;3540;53.242;10.408;2023-05-29T13:49:02;8.03;;;3.10;;
6999;SDS011;3540;53.242;10.408;2023-05-29T13:51:28;9.37;;;3.20;;
6999;SDS011;3540;53.242;10.408;2023-05-29T13:53:54;9.43;;;3.27;;
6999;SDS011;3540;53.242;10.408;2023-05-29T13:56:19;8.52;;;3.03;;
6999;SDS011;3540;53.242;10.408;2023-05-29T13:58:45;6.97;;;2.73;;
6999;SDS011;3540;53.242;10.408;2023-05-29T14:01:11;4.77;;;2.40;;
6999;SDS011;3540;53.242;10.408;2023-05-29T14:03:36;7.43;;;3.03;;
6999;SDS011;3540;53.242;10.408;2023-05-29T14:06:03;9.17;;;3.13;;
6999;SDS011;3540;53.242;10.408;2023-05-29T14:08:30;8.33;;;3.17;;
6999;SDS011;3540;53.242;10.408;2023-05-29T14:10:56;8.23;;;2.97;;
6999;SDS011;3540;53.242;10.408;2023-05-29T14:13:22;8.48;;;3.42;;
6999;SDS011;3540;53.242;10.408;2023-05-29T14:15:47;10.35;;;3.10;;
6999;SDS011;3540;53.242;10.408;2023-05-29T14:18:16;8.98;;;3.03;;
6999;SDS011;3540;53.242;10.408;2023-05-29T14:20:41;6.45;;;2.67;;
6999;SDS011;3540;53.242;10.408;2023-05-29T14:23:07;7.55;;;2.95;;
6999;SDS011;3540;53.242;10.408;2023-05-29T14:25:38;8.93;;;2.63;;
6999;SDS011;3540;53.242;10.408;2023-05-29T14:28:04;7.35;;;3.08;;
6999;SDS011;3540;53.242;10.408;2023-05-29T14:30:31;6.10;;;2.80;;
6999;SDS011;3540;53.242;10.408;2023-05-29T14:32:57;7.50;;;3.03;;
6999;SDS011;3540;53.242;10.408;2023-05-29T14:35:22;6.55;;;3.05;;
6999;SDS011;3540;53.242;10.408;2023-05-29T14:37:48;9.77;;;3.20;;
6999;SDS011;3540;53.242;10.408;2023-05-29T14:40:14;7.60;;;3.33;;
6999;SDS011;3540;53.242;10.408;2023-05-29T14:42:39;7.25;;;2.65;;
6999;SDS011;3540;53.242;10.408;2023-05-29T14:45:05;6.40;;;3.00;;
6999;SDS011;3540;53.242;10.408;2023-05-29T14:47:32;8.40;;;3.15;;
6999;SDS011;3540;53.242;10.408;2023-05-29T14:49:58;9.55;;;3.13;;
6999;SDS011;3540;53.242;10.408;2023-05-29T14:52:23;8.32;;;3.15;;
6999;SDS011;3540;53.242;10.408;2023-05-29T14:54:49;9.32;;;3.25;;
6999;SDS011;3540;53.242;10.408;2023-05-29T14:57:15;7.00;;;3.22;;
6999;SDS011;3540;53.242;10.408;2023-05-29T14:59:40;6.93;;;3.13;;
6999;SDS011;3540;53.242;10.408;2023-05-29T15:02:06;6.63;;;3.00;;
6999;SDS011;3540;53.242;10.408;2023-05-29T15:04:32;7.55;;;3.15;;
6999;SDS011;3540;53.242;10.408;2023-05-29T15:06:57;11.10;;;3.45;;
6999;SDS011;3540;53.242;10.408;2023-05-29T15:09:23;9.15;;;3.10;;
6999;SDS011;3540;53.242;10.408;2023-05-29T15:11:49;10.60;;;3.20;;
6999;SDS011;3540;53.242;10.408;2023-05-29T15:14:15;8.45;;;2.75;;
6999;SDS011;3540;53.242;10.408;2023-05-29T15:16:42;9.23;;;2.72;;
6999;SDS011;3540;53.242;10.408;2023-05-29T15:19:07;7.57;;;2.95;;
6999;SDS011;3540;53.242;10.408;2023-05-29T15:21:33;7.50;;;3.35;;
6999;SDS011;3540;53.242;10.408;2023-05-29T15:23:59;10.20;;;3.10;;
6999;SDS011;3540;53.242;10.408;2023-05-29T15:26:24;10.27;;;3.40;;
6999;SDS011;3540;53.242;10.408;2023-05-29T15:28:52;8.18;;;3.05;;
6999;SDS011;3540;53.242;10.408;2023-05-29T15:31:19;7.32;;;3.03;;
6999;SDS011;3540;53.242;10.408;2023-05-29T15:33:47;8.70;;;3.20;;
6999;SDS011;3540;53.242;10.408;2023-05-29T15:36:13;8.10;;;3.15;;
6999;SDS011;3540;53.242;10.408;2023-05-29T15:38:40;9.68;;;3.20;;